createdAt,value
2018-06-12T00:01:54.859Z,17.80
2018-06-12T00:04:24.342Z,17.80
2018-06-12T00:06:53.844Z,17.80
2018-06-12T00:09:23.448Z,17.80
2018-06-12T00:11:52.950Z,17.70
2018-06-12T00:14:22.421Z,17.70
2018-06-12T00:16:51.885Z,17.70
2018-06-12T00:19:21.567Z,17.60
2018-06-12T00:21:51.108Z,17.60
2018-06-12T00:24:20.583Z,17.60
2018-06-12T00:26:50.042Z,17.50
2018-06-12T00:29:19.654Z,17.60
2018-06-12T00:31:49.110Z,17.50
2018-06-12T00:34:18.564Z,17.40
2018-06-12T00:36:48.172Z,17.40
2018-06-12T00:39:18.322Z,17.40
2018-06-12T00:41:47.772Z,17.30
2018-06-12T00:44:17.217Z,17.30
2018-06-12T00:46:46.772Z,17.20
2018-06-12T00:49:16.292Z,17.20
2018-06-12T00:51:45.782Z,17.10
2018-06-12T00:54:15.418Z,17.10
2018-06-12T00:57:01.881Z,17.10
2018-06-12T00:59:31.485Z,17.00
2018-06-12T01:02:01.014Z,17.00
2018-06-12T01:04:30.473Z,17.00
2018-06-12T01:06:59.959Z,16.90
2018-06-12T01:09:29.421Z,16.90
2018-06-12T01:11:58.869Z,16.80
2018-06-12T01:14:28.305Z,16.80
2018-06-12T01:16:57.807Z,16.80
2018-06-12T01:19:27.359Z,16.70
2018-06-12T01:21:56.786Z,16.70
2018-06-12T01:24:26.205Z,16.70
2018-06-12T01:26:55.712Z,16.60
2018-06-12T01:29:25.333Z,16.60
2018-06-12T01:31:54.793Z,16.60
2018-06-12T01:34:24.239Z,16.50
2018-06-12T01:36:54.345Z,16.40
2018-06-12T01:39:23.918Z,16.40
2018-06-12T01:41:53.351Z,16.40
2018-06-12T01:44:22.797Z,16.40
2018-06-12T01:46:52.323Z,16.40
2018-06-12T01:49:21.728Z,16.40
2018-06-12T01:51:51.156Z,16.40
2018-06-12T01:54:20.805Z,16.40
2018-06-12T01:56:50.355Z,16.30
2018-06-12T01:59:19.762Z,16.30
2018-06-12T02:06:48.478Z,16.30
2018-06-12T02:15:23.601Z,16.20
2018-06-12T02:17:52.996Z,16.20
2018-06-12T02:20:22.409Z,16.10
2018-06-12T02:22:51.942Z,16.10
2018-06-12T02:25:21.376Z,16.10
2018-06-12T02:27:50.787Z,16.10
2018-06-12T02:30:20.316Z,16.10
2018-06-12T02:32:49.941Z,16.10
2018-06-12T02:35:19.356Z,16.00
2018-06-12T02:37:48.768Z,16.00
2018-06-12T02:40:18.274Z,16.00
2018-06-12T02:42:47.895Z,16.00
2018-06-12T02:45:17.348Z,16.00
2018-06-12T02:47:46.770Z,16.00
2018-06-12T02:50:16.951Z,16.00
2018-06-12T02:52:46.547Z,16.00
2018-06-12T02:55:15.954Z,16.00
2018-06-12T02:57:45.407Z,16.00
2018-06-12T03:00:14.963Z,16.00
2018-06-12T03:02:44.412Z,16.00
2018-06-12T03:05:13.836Z,16.00
2018-06-12T03:07:43.287Z,16.00
2018-06-12T03:10:12.851Z,16.00
2018-06-12T03:12:42.253Z,16.10
2018-06-12T03:15:11.685Z,16.10
2018-06-12T03:17:41.235Z,16.10
2018-06-12T03:20:10.997Z,16.10
2018-06-12T03:22:40.405Z,16.00
2018-06-12T03:25:09.842Z,16.00
2018-06-12T03:27:39.291Z,16.00
2018-06-12T03:30:08.700Z,16.00
2018-06-12T03:32:38.147Z,15.90
2018-06-12T03:35:07.611Z,15.90
2018-06-12T03:37:37.174Z,15.90
2018-06-12T03:40:06.584Z,15.80
2018-06-12T03:42:36.015Z,15.80
2018-06-12T03:45:05.948Z,15.80
2018-06-12T03:47:35.344Z,15.80
2018-06-12T03:50:04.801Z,15.70
2018-06-12T03:52:34.203Z,15.80
2018-06-12T03:55:03.695Z,15.70
2018-06-12T03:57:33.127Z,15.70
2018-06-12T04:00:02.541Z,15.70
2018-06-12T04:02:32.046Z,15.70
2018-06-12T04:05:01.599Z,15.80
2018-06-12T04:07:31.021Z,15.80
2018-06-12T04:10:00.461Z,15.80
2018-06-12T04:12:29.989Z,15.80
2018-06-12T04:14:59.549Z,15.90
2018-06-12T04:17:28.972Z,15.90
2018-06-12T04:19:58.387Z,16.00
2018-06-12T04:22:27.913Z,16.00
2018-06-12T04:24:57.474Z,16.10
2018-06-12T04:27:26.871Z,16.10
2018-06-12T04:29:56.390Z,16.20
2018-06-12T04:32:25.870Z,16.20
2018-06-12T04:34:55.266Z,16.30
2018-06-12T04:37:24.691Z,16.20
2018-06-12T04:39:54.180Z,16.20
2018-06-12T04:42:23.836Z,16.20
2018-06-12T04:44:53.272Z,16.30
2018-06-12T04:47:23.258Z,16.20
2018-06-12T04:49:52.906Z,16.20
2018-06-12T04:52:22.439Z,16.20
2018-06-12T04:54:52.048Z,16.20
2018-06-12T04:57:21.497Z,16.20
2018-06-12T04:59:51.096Z,16.30
2018-06-12T05:02:20.607Z,16.30
2018-06-12T05:04:50.019Z,16.30
2018-06-12T05:07:19.586Z,16.40
2018-06-12T05:09:49.160Z,16.40
2018-06-12T05:12:18.607Z,16.40
2018-06-12T05:14:48.086Z,16.40
2018-06-12T05:17:17.713Z,16.40
2018-06-12T05:19:47.190Z,16.50
2018-06-12T05:22:16.679Z,16.60
2018-06-12T05:24:46.098Z,16.60
2018-06-12T05:27:15.581Z,16.60
2018-06-12T05:29:45.094Z,16.70
2018-06-12T05:32:14.496Z,16.80
2018-06-12T05:34:43.947Z,16.80
2018-06-12T05:37:13.518Z,17.00
2018-06-12T05:39:43.200Z,17.00
2018-06-12T05:42:12.760Z,17.10
2018-06-12T05:44:42.216Z,17.20
2018-06-12T05:47:11.718Z,17.20
2018-06-12T05:49:41.126Z,17.30
2018-06-12T05:52:10.558Z,17.30
2018-06-12T05:54:40.134Z,17.50
2018-06-12T05:57:09.788Z,17.50
2018-06-12T05:59:39.269Z,17.50
2018-06-12T06:02:08.809Z,17.40
2018-06-12T06:04:38.391Z,17.40
2018-06-12T06:07:08.064Z,17.40
2018-06-12T06:09:37.472Z,17.50
2018-06-12T06:14:36.164Z,17.60
2018-06-12T06:17:05.569Z,17.60
2018-06-12T06:19:34.994Z,17.80
2018-06-12T06:22:04.573Z,17.90
2018-06-12T06:24:34.149Z,18.00
2018-06-12T06:27:03.591Z,18.00
2018-06-12T06:29:33.052Z,18.10
2018-06-12T06:32:02.504Z,18.20
2018-06-12T06:34:31.949Z,18.30
2018-06-12T06:37:01.364Z,18.20
2018-06-12T06:39:30.828Z,18.30
2018-06-12T06:42:00.443Z,18.30
2018-06-12T06:44:29.913Z,18.30
2018-06-12T06:46:59.408Z,18.30
2018-06-12T06:49:28.868Z,18.30
2018-06-12T06:51:58.355Z,18.20
2018-06-12T06:54:27.811Z,18.20
2018-06-12T06:56:57.257Z,18.20
2018-06-12T06:59:26.798Z,18.10
2018-06-12T07:01:56.202Z,18.20
2018-06-12T07:04:25.588Z,18.30
2018-06-12T07:06:55.086Z,18.30
2018-06-12T07:09:24.656Z,18.40
2018-06-12T07:11:54.107Z,18.40
2018-06-12T07:14:23.571Z,18.50
2018-06-12T07:16:53.040Z,18.60
2018-06-12T07:19:22.680Z,18.60
2018-06-12T07:21:52.181Z,18.80
2018-06-12T07:26:50.886Z,19.20
2018-06-12T07:29:20.361Z,19.30
2018-06-12T07:31:49.767Z,19.40
2018-06-12T07:34:19.374Z,19.50
2018-06-12T07:36:48.803Z,19.50
2018-06-12T07:39:18.250Z,19.40
2018-06-12T07:41:47.713Z,19.40
2018-06-12T07:44:17.219Z,19.50
2018-06-12T07:46:46.688Z,19.70
2018-06-12T07:49:16.149Z,19.70
2018-06-12T07:51:45.603Z,19.90
2018-06-12T07:54:15.147Z,19.80
2018-06-12T07:59:13.809Z,19.90
2018-06-12T08:01:43.293Z,20.00
2018-06-12T08:04:12.816Z,20.10
2018-06-12T08:06:42.275Z,20.10
2018-06-12T08:09:11.713Z,20.10
2018-06-12T08:11:41.209Z,20.30
2018-06-12T08:14:10.653Z,20.50
2018-06-12T08:16:40.113Z,20.50
2018-06-12T08:19:09.617Z,20.50
2018-06-12T08:21:39.132Z,20.70
2018-06-12T08:24:08.670Z,20.90
2018-06-12T08:26:38.101Z,21.10
2018-06-12T08:29:07.700Z,21.00
2018-06-12T08:31:37.211Z,21.20
2018-06-12T08:34:06.631Z,21.20
2018-06-12T08:36:36.093Z,21.40
2018-06-12T08:39:08.163Z,21.50
2018-06-12T08:41:37.721Z,21.70
2018-06-12T08:44:07.311Z,21.90
2018-06-12T08:46:36.746Z,21.80
2018-06-12T08:49:06.428Z,21.80
2018-06-12T08:51:36.004Z,21.90
2018-06-12T08:54:05.590Z,22.00
2018-06-12T08:56:35.021Z,22.20
2018-06-12T08:59:04.459Z,22.10
2018-06-12T09:01:34.009Z,21.90
2018-06-12T09:04:03.499Z,21.80
2018-06-12T09:06:32.955Z,21.80
2018-06-12T09:09:02.510Z,21.90
2018-06-12T09:11:31.969Z,22.00
2018-06-12T09:14:01.395Z,22.00
2018-06-12T09:16:30.845Z,22.00
2018-06-12T09:19:00.390Z,22.00
2018-06-12T09:21:29.930Z,22.00
2018-06-12T09:23:59.352Z,22.20
2018-06-12T09:26:28.807Z,22.20
2018-06-12T09:28:58.400Z,22.30
2018-06-12T09:31:27.829Z,22.40
2018-06-12T09:33:57.282Z,22.50
2018-06-12T09:36:32.103Z,22.70
2018-06-12T09:39:01.656Z,23.00
2018-06-12T09:41:31.065Z,23.10
2018-06-12T09:44:00.520Z,23.40
2018-06-12T09:46:29.974Z,23.40
2018-06-12T09:48:59.373Z,23.60
2018-06-12T09:51:28.880Z,23.40
2018-06-12T09:53:58.404Z,23.40
2018-06-12T09:56:27.839Z,23.10
2018-06-12T09:58:57.262Z,22.90
2018-06-12T10:01:26.815Z,22.80
2018-06-12T10:03:56.338Z,22.80
2018-06-12T10:06:25.776Z,22.90
2018-06-12T10:08:55.230Z,23.10
2018-06-12T10:11:24.776Z,23.20
2018-06-12T10:13:54.636Z,23.10
2018-06-12T10:16:24.192Z,23.20
2018-06-12T10:18:53.649Z,23.20
2018-06-12T10:21:23.136Z,23.10
2018-06-12T10:23:52.686Z,23.10
2018-06-12T10:26:22.212Z,23.40
2018-06-12T10:28:51.752Z,23.80
2018-06-12T10:31:21.236Z,23.90
2018-06-12T10:33:50.741Z,24.50
2018-06-12T10:36:20.261Z,25.20
2018-06-12T10:38:49.824Z,25.80
2018-06-12T10:43:48.455Z,26.30
2018-06-12T10:46:17.962Z,26.20
2018-06-12T10:48:47.539Z,25.90
2018-06-12T10:51:17.908Z,25.70
2018-06-12T10:53:47.361Z,25.60
2018-06-12T10:56:16.799Z,25.50
2018-06-12T10:58:46.254Z,25.30
2018-06-12T11:01:15.747Z,25.10
2018-06-12T11:03:45.227Z,24.70
2018-06-12T11:06:14.783Z,24.30
2018-06-12T11:08:44.226Z,24.10
2018-06-12T11:11:13.730Z,23.90
2018-06-12T11:13:44.194Z,23.70
2018-06-12T11:16:13.794Z,23.50
2018-06-12T11:18:43.359Z,23.30
2018-06-12T11:21:12.916Z,23.00
2018-06-12T11:23:42.410Z,23.00
2018-06-12T11:26:12.378Z,23.00
2018-06-12T11:28:41.876Z,23.00
2018-06-12T11:31:12.957Z,23.00
2018-06-12T11:33:42.636Z,22.90
2018-06-12T11:36:12.693Z,22.70
2018-06-12T11:38:42.755Z,22.40
2018-06-12T11:43:41.793Z,22.30
2018-06-12T11:46:11.209Z,22.20
2018-06-12T11:48:40.761Z,22.10
2018-06-12T11:51:10.911Z,21.90
2018-06-12T11:56:09.638Z,21.70
2018-06-12T11:58:39.242Z,21.70
2018-06-12T12:01:08.695Z,21.50
2018-06-12T12:03:38.200Z,21.30
2018-06-12T12:06:07.664Z,21.20
2018-06-12T12:08:37.288Z,21.10
2018-06-12T12:11:07.104Z,21.00
2018-06-12T12:13:36.592Z,20.80
2018-06-12T12:16:06.054Z,20.60
2018-06-12T12:18:35.505Z,20.50
2018-06-12T12:21:04.964Z,20.40
2018-06-12T12:23:35.154Z,20.30
2018-06-12T12:26:04.556Z,20.40
2018-06-12T12:28:34.117Z,20.40
2018-06-12T12:31:03.647Z,20.30
2018-06-12T12:33:33.054Z,20.30
2018-06-12T12:36:02.573Z,20.30
2018-06-12T12:38:32.832Z,20.40
2018-06-12T12:41:02.404Z,20.50
2018-06-12T12:43:31.855Z,20.60
2018-06-12T12:46:01.452Z,20.60
2018-06-12T12:48:31.434Z,20.50
2018-06-12T12:51:00.942Z,20.50
2018-06-12T12:53:30.341Z,20.50
2018-06-12T12:55:59.887Z,20.50
2018-06-12T12:58:29.449Z,20.40
2018-06-12T13:00:58.863Z,20.40
2018-06-12T13:03:28.301Z,20.30
2018-06-12T13:05:57.761Z,20.40
2018-06-12T13:08:27.316Z,20.30
2018-06-12T13:10:56.777Z,20.20
2018-06-12T13:13:26.244Z,20.20
2018-06-12T13:15:56.489Z,20.10
2018-06-12T13:18:26.007Z,20.00
2018-06-12T13:20:55.425Z,19.90
2018-06-12T13:23:24.870Z,19.80
2018-06-12T13:25:54.428Z,19.70
2018-06-12T13:28:23.823Z,19.60
2018-06-12T13:30:53.244Z,19.50
2018-06-12T13:33:22.783Z,19.50
2018-06-12T13:35:52.383Z,19.40
2018-06-12T13:38:21.824Z,19.30
2018-06-12T13:40:51.229Z,19.30
2018-06-12T13:43:20.805Z,19.20
2018-06-12T13:45:50.395Z,19.20
2018-06-12T13:48:19.974Z,19.20
2018-06-12T13:50:50.387Z,19.10
2018-06-12T13:53:19.931Z,19.10
2018-06-12T13:55:49.384Z,19.00
2018-06-12T13:58:18.828Z,18.90
2018-06-12T14:00:48.279Z,18.90
2018-06-12T14:03:17.831Z,18.80
2018-06-12T14:05:47.263Z,18.70
2018-06-12T14:08:16.675Z,18.60
2018-06-12T14:10:46.177Z,18.50
2018-06-12T14:13:15.661Z,18.40
2018-06-12T14:15:46.116Z,18.30
2018-06-12T14:18:15.557Z,18.20
2018-06-12T14:20:45.081Z,18.20
2018-06-12T14:23:14.568Z,18.20
2018-06-12T14:25:44.011Z,18.20
2018-06-12T14:28:13.539Z,18.30
2018-06-12T14:30:43.045Z,18.50
2018-06-12T14:33:12.683Z,18.70
2018-06-12T14:35:42.123Z,19.10
2018-06-12T14:38:11.868Z,19.60
2018-06-12T14:40:41.405Z,20.40
2018-06-12T14:43:10.841Z,21.30
2018-06-12T14:45:40.245Z,22.20
2018-06-12T14:48:09.667Z,22.60
2018-06-12T14:50:39.973Z,22.80
2018-06-12T14:53:09.417Z,23.20
2018-06-12T14:55:38.826Z,23.80
2018-06-12T14:58:08.299Z,24.40
2018-06-12T15:00:37.898Z,26.10
2018-06-12T15:03:07.447Z,26.90
2018-06-12T15:05:36.892Z,27.00
2018-06-12T15:08:06.461Z,26.80
2018-06-12T15:10:36.021Z,26.40
2018-06-12T15:13:05.510Z,26.10
2018-06-12T15:15:34.907Z,26.90
2018-06-12T15:18:04.420Z,28.20
2018-06-12T15:20:33.915Z,30.10
2018-06-12T15:23:03.437Z,30.60
2018-06-12T15:25:32.867Z,29.50
2018-06-12T15:28:02.390Z,28.70
2018-06-12T15:30:31.871Z,28.40
2018-06-12T15:33:01.302Z,27.60
2018-06-12T15:35:30.865Z,26.30
2018-06-12T15:38:00.481Z,26.20
2018-06-12T15:40:32.475Z,26.00
2018-06-12T15:43:02.217Z,25.60
2018-06-12T15:45:32.106Z,25.00
2018-06-12T15:48:01.813Z,24.40
2018-06-12T15:50:31.587Z,23.60
2018-06-12T15:53:01.520Z,23.20
2018-06-12T15:55:31.038Z,22.80
2018-06-12T15:58:00.509Z,22.50
2018-06-12T16:02:59.494Z,22.10
2018-06-12T16:05:28.981Z,22.00
2018-06-12T16:07:58.824Z,21.90
2018-06-12T16:10:28.411Z,21.70
2018-06-12T16:12:58.057Z,21.80
2018-06-12T16:15:27.512Z,21.60
2018-06-12T16:17:56.956Z,21.70
2018-06-12T16:20:26.443Z,21.70
2018-06-12T16:22:55.874Z,21.70
2018-06-12T16:25:25.284Z,21.60
2018-06-12T16:27:54.820Z,21.50
2018-06-12T16:30:24.356Z,21.40
2018-06-12T16:32:53.780Z,21.40
2018-06-12T16:35:23.253Z,21.20
2018-06-12T16:37:52.831Z,21.10
2018-06-12T16:40:22.405Z,21.00
2018-06-12T16:42:51.788Z,21.00
2018-06-12T16:45:21.203Z,20.90
2018-06-12T16:47:50.760Z,20.80
2018-06-12T16:50:20.255Z,20.80
2018-06-12T16:52:49.646Z,20.70
2018-06-12T16:55:19.226Z,20.50
2018-06-12T16:57:49.341Z,20.50
2018-06-12T17:00:18.810Z,20.40
2018-06-12T17:02:48.246Z,20.50
2018-06-12T17:05:17.794Z,20.40
2018-06-12T17:10:16.494Z,20.30
2018-06-12T17:12:45.950Z,20.30
2018-06-12T17:15:15.548Z,20.20
2018-06-12T17:17:45.048Z,20.20
2018-06-12T17:20:14.450Z,20.10
2018-06-12T17:22:43.916Z,20.00
2018-06-12T17:25:13.476Z,19.80
2018-06-12T17:27:42.988Z,19.70
2018-06-12T17:30:12.454Z,19.60
2018-06-12T17:32:42.096Z,19.60
2018-06-12T17:35:11.595Z,19.40
2018-06-12T17:37:41.035Z,19.40
2018-06-12T17:40:10.569Z,19.30
2018-06-12T17:42:40.158Z,19.30
2018-06-12T17:45:09.670Z,19.30
2018-06-12T17:47:39.328Z,19.30
2018-06-12T17:50:08.800Z,19.20
2018-06-12T17:52:38.344Z,19.20
2018-06-12T17:55:07.900Z,19.30
2018-06-12T17:57:37.278Z,19.20
2018-06-12T18:00:06.796Z,19.30
2018-06-12T18:02:36.587Z,19.20
2018-06-12T18:05:06.449Z,19.20
2018-06-12T18:10:05.411Z,19.20
2018-06-12T18:15:05.555Z,19.00
2018-06-12T18:17:35.116Z,19.00
2018-06-12T18:20:04.658Z,19.00
2018-06-12T18:22:34.363Z,18.90
2018-06-12T18:25:04.373Z,18.90
2018-06-12T18:27:33.791Z,18.80
2018-06-12T18:30:03.343Z,18.80
2018-06-12T18:32:33.624Z,18.80
2018-06-12T18:35:03.157Z,18.80
2018-06-12T18:37:32.616Z,18.70
2018-06-12T18:40:02.132Z,18.70
2018-06-12T18:42:31.693Z,18.60
2018-06-12T18:45:01.334Z,18.50
2018-06-12T18:47:30.763Z,18.50
2018-06-12T18:50:00.220Z,18.40
2018-06-12T18:52:29.876Z,18.40
2018-06-12T18:54:59.669Z,18.40
2018-06-12T18:57:29.088Z,18.30
2018-06-12T18:59:58.581Z,18.30
2018-06-12T19:02:28.345Z,18.30
2018-06-12T19:04:57.772Z,18.30
2018-06-12T19:07:27.254Z,18.20
2018-06-12T19:09:56.799Z,18.10
2018-06-12T19:12:26.326Z,18.10
2018-06-12T19:14:55.799Z,18.00
2018-06-12T19:17:25.259Z,17.90
2018-06-12T19:20:02.101Z,17.80
2018-06-12T19:22:31.638Z,17.80
2018-06-12T19:25:01.148Z,17.70
2018-06-12T19:27:30.607Z,17.70
2018-06-12T19:30:00.178Z,17.60
2018-06-12T19:32:29.691Z,17.50
2018-06-12T19:34:59.167Z,17.50
2018-06-12T19:37:28.797Z,17.40
2018-06-12T19:40:02.620Z,17.40
2018-06-12T19:42:32.133Z,17.30
2018-06-12T19:45:01.612Z,17.30
2018-06-12T19:47:31.107Z,17.30
2018-06-12T19:50:00.512Z,17.20
2018-06-12T19:52:30.248Z,17.20
2018-06-12T19:54:59.797Z,17.10
2018-06-12T19:57:29.378Z,17.10
2018-06-12T19:59:58.823Z,17.10
2018-06-12T20:02:28.592Z,17.10
2018-06-12T20:04:58.095Z,17.10
2018-06-12T20:07:27.584Z,17.00
2018-06-12T20:09:57.062Z,17.10
2018-06-12T20:12:26.657Z,17.00
2018-06-12T20:14:56.147Z,17.10
2018-06-12T20:17:25.545Z,17.00
2018-06-12T20:19:55.067Z,17.10
2018-06-12T20:22:24.780Z,17.00
2018-06-12T20:24:54.231Z,17.00
2018-06-12T20:27:23.672Z,17.00
2018-06-12T20:29:53.220Z,16.90
2018-06-12T20:32:23.055Z,16.80
2018-06-12T20:34:52.661Z,16.80
2018-06-12T20:37:22.748Z,16.90
2018-06-12T20:39:52.230Z,16.80
2018-06-12T20:42:21.946Z,16.80
2018-06-12T20:44:51.397Z,16.80
2018-06-12T20:47:21.014Z,16.80
2018-06-12T20:49:50.720Z,16.70
2018-06-12T20:52:20.446Z,16.70
2018-06-12T20:54:49.932Z,16.70
2018-06-12T20:57:19.373Z,16.70
2018-06-12T20:59:48.973Z,16.60
2018-06-12T21:02:18.555Z,16.60
2018-06-12T21:04:47.971Z,16.60
2018-06-12T21:07:17.536Z,16.50
2018-06-12T21:09:46.982Z,16.40
2018-06-12T21:12:16.546Z,16.40
2018-06-12T21:14:45.971Z,16.30
2018-06-12T21:17:15.503Z,16.20
2018-06-12T21:19:45.019Z,16.10
2018-06-12T21:22:14.625Z,16.00
2018-06-12T21:24:44.030Z,16.00
2018-06-12T21:27:13.773Z,15.80
2018-06-12T21:29:43.353Z,15.70
2018-06-12T21:34:42.320Z,15.50
2018-06-12T21:37:11.926Z,15.40
2018-06-12T21:39:41.411Z,15.30
2018-06-12T21:42:10.971Z,15.20
2018-06-12T21:44:40.445Z,15.20
2018-06-12T21:47:09.952Z,15.10
2018-06-12T21:49:39.486Z,15.00
2018-06-12T21:54:38.286Z,14.80
2018-06-12T21:57:07.797Z,14.60
2018-06-12T21:59:37.218Z,14.60
2018-06-12T22:02:07.004Z,14.50
2018-06-12T22:04:36.585Z,14.40
2018-06-12T22:07:06.234Z,14.40
2018-06-12T22:09:35.755Z,14.30
2018-06-12T22:12:05.243Z,14.30
2018-06-12T22:14:34.922Z,14.20
2018-06-12T22:17:19.123Z,14.20
2018-06-12T22:19:48.555Z,14.10
2018-06-12T22:22:18.030Z,14.20
2018-06-12T22:24:48.045Z,14.10
2018-06-12T22:27:17.517Z,14.10
2018-06-12T22:29:46.947Z,14.00
2018-06-12T22:34:45.966Z,14.00
2018-06-12T22:37:15.367Z,13.90
2018-06-12T22:39:44.788Z,13.90
2018-06-12T22:42:14.207Z,13.90
2018-06-12T22:44:43.693Z,13.80
2018-06-12T22:47:13.104Z,13.80
2018-06-12T22:49:42.550Z,13.70
2018-06-12T22:52:12.041Z,13.70
2018-06-12T22:54:41.620Z,13.60
2018-06-12T22:57:11.059Z,13.60
2018-06-12T22:59:40.518Z,13.60
2018-06-12T23:02:10.034Z,13.60
2018-06-12T23:04:39.537Z,13.60
2018-06-12T23:07:08.921Z,13.60
2018-06-12T23:09:38.478Z,13.50
2018-06-12T23:12:07.888Z,13.50
2018-06-12T23:14:37.320Z,13.40
2018-06-12T23:17:06.962Z,13.40
2018-06-12T23:19:53.130Z,13.30
2018-06-12T23:22:22.670Z,13.30
2018-06-12T23:24:52.194Z,13.20
2018-06-12T23:27:21.639Z,13.20
2018-06-12T23:29:51.272Z,13.10
2018-06-12T23:32:20.728Z,13.10
2018-06-12T23:34:50.189Z,13.00
2018-06-12T23:37:19.677Z,13.00
2018-06-12T23:39:49.092Z,13.00
2018-06-12T23:42:18.654Z,13.00
2018-06-12T23:44:48.046Z,12.90
2018-06-12T23:47:17.447Z,13.00
2018-06-12T23:49:47.043Z,13.00
2018-06-12T23:52:16.448Z,13.10
2018-06-12T23:54:45.866Z,13.10
2018-06-12T23:57:15.330Z,13.10
2018-06-12T23:59:44.880Z,13.20
